sensor_id;sensor_type;location;lat;lon;timestamp;pressure;altitude;pressure_sealevel;temperature;humidity
75692;BME280;64307;52.508;6.090;2023-04-03T00:01:58;103209.31;;;3.57;72.83
75692;BME280;64307;52.508;6.090;2023-04-03T00:04:23;103206.41;;;3.49;73.72
75692;BME280;64307;52.508;6.090;2023-04-03T00:06:49;103199.47;;;3.51;72.56
75692;BME280;64307;52.508;6.090;2023-04-03T00:09:15;103211.09;;;3.43;73.62
75692;BME280;64307;52.508;6.090;2023-04-03T00:11:41;103207.59;;;3.38;73.31
75692;BME280;64307;52.508;6.090;2023-04-03T00:14:06;103208.88;;;3.45;73.22
75692;BME280;64307;52.508;6.090;2023-04-03T00:16:32;103205.34;;;3.45;73.30
75692;BME280;64307;52.508;6.090;2023-04-03T00:18:57;103203.22;;;3.37;73.28
75692;BME280;64307;52.508;6.090;2023-04-03T00:21:22;103203.28;;;3.26;74.32
75692;BME280;64307;52.508;6.090;2023-04-03T00:23:47;103219.25;;;3.29;74.45
75692;BME280;64307;52.508;6.090;2023-04-03T00:26:13;103213.22;;;3.27;74.12
75692;BME280;64307;52.508;6.090;2023-04-03T00:28:38;103209.41;;;3.18;75.06
75692;BME280;64307;52.508;6.090;2023-04-03T00:31:03;103219.81;;;3.26;74.34
75692;BME280;64307;52.508;6.090;2023-04-03T00:33:30;103215.13;;;3.27;74.33
75692;BME280;64307;52.508;6.090;2023-04-03T00:35:55;103202.59;;;3.16;74.65
75692;BME280;64307;52.508;6.090;2023-04-03T00:38:21;103216.88;;;3.18;75.17
75692;BME280;64307;52.508;6.090;2023-04-03T00:40:48;103222.94;;;3.15;75.50
75692;BME280;64307;52.508;6.090;2023-04-03T00:43:22;103212.28;;;3.08;76.13
75692;BME280;64307;52.508;6.090;2023-04-03T00:45:49;103211.44;;;3.08;75.08
75692;BME280;64307;52.508;6.090;2023-04-03T00:48:42;103223.53;;;3.12;74.99
75692;BME280;64307;52.508;6.090;2023-04-03T00:51:14;103219.53;;;2.99;76.16
75692;BME280;64307;52.508;6.090;2023-04-03T00:53:46;103221.13;;;3.05;75.85
75692;BME280;64307;52.508;6.090;2023-04-03T00:56:14;103224.19;;;2.99;76.38
75692;BME280;64307;52.508;6.090;2023-04-03T00:58:45;103229.47;;;2.95;76.81
75692;BME280;64307;52.508;6.090;2023-04-03T01:01:15;103220.47;;;2.85;76.95
75692;BME280;64307;52.508;6.090;2023-04-03T01:03:42;103223.97;;;2.90;76.10
75692;BME280;64307;52.508;6.090;2023-04-03T01:06:07;103231.69;;;2.93;76.80
75692;BME280;64307;52.508;6.090;2023-04-03T01:08:33;103239.66;;;2.90;77.09
75692;BME280;64307;52.508;6.090;2023-04-03T01:10:58;103226.59;;;2.72;76.82
75692;BME280;64307;52.508;6.090;2023-04-03T01:13:30;103225.50;;;2.73;77.27
75692;BME280;64307;52.508;6.090;2023-04-03T01:15:56;103237.00;;;2.80;77.58
75692;BME280;64307;52.508;6.090;2023-04-03T01:18:23;103229.09;;;2.68;77.56
75692;BME280;64307;52.508;6.090;2023-04-03T01:23:44;103229.94;;;2.69;77.51
75692;BME280;64307;52.508;6.090;2023-04-03T01:26:15;103219.56;;;2.50;78.40
75692;BME280;64307;52.508;6.090;2023-04-03T01:28:40;103235.22;;;2.55;78.59
75692;BME280;64307;52.508;6.090;2023-04-03T01:31:22;103243.47;;;2.60;78.22
75692;BME280;64307;52.508;6.090;2023-04-03T01:33:50;103245.69;;;2.53;78.29
75692;BME280;64307;52.508;6.090;2023-04-03T01:36:19;103246.50;;;2.59;78.75
75692;BME280;64307;52.508;6.090;2023-04-03T01:38:45;103243.53;;;2.50;79.18
75692;BME280;64307;52.508;6.090;2023-04-03T01:41:11;103234.81;;;2.38;79.65
75692;BME280;64307;52.508;6.090;2023-04-03T01:43:36;103249.94;;;2.30;79.80
75692;BME280;64307;52.508;6.090;2023-04-03T01:46:02;103244.44;;;2.30;80.29
75692;BME280;64307;52.508;6.090;2023-04-03T01:48:28;103251.53;;;2.41;79.79
75692;BME280;64307;52.508;6.090;2023-04-03T01:50:54;103252.63;;;2.40;79.79
75692;BME280;64307;52.508;6.090;2023-04-03T01:53:19;103243.84;;;2.38;79.45
75692;BME280;64307;52.508;6.090;2023-04-03T01:55:45;103245.28;;;2.26;80.32
75692;BME280;64307;52.508;6.090;2023-04-03T01:58:10;103246.09;;;2.31;80.21
75692;BME280;64307;52.508;6.090;2023-04-03T02:00:35;103248.84;;;2.26;80.02
75692;BME280;64307;52.508;6.090;2023-04-03T02:03:01;103241.75;;;2.20;80.61
75692;BME280;64307;52.508;6.090;2023-04-03T02:05:29;103253.53;;;2.26;81.44
75692;BME280;64307;52.508;6.090;2023-04-03T02:07:55;103245.06;;;2.17;80.96
75692;BME280;64307;52.508;6.090;2023-04-03T02:10:20;103255.47;;;2.20;81.71
75692;BME280;64307;52.508;6.090;2023-04-03T02:12:45;103253.03;;;2.19;81.24
75692;BME280;64307;52.508;6.090;2023-04-03T02:15:12;103241.78;;;2.05;82.21
75692;BME280;64307;52.508;6.090;2023-04-03T02:17:37;103256.06;;;2.17;81.54
75692;BME280;64307;52.508;6.090;2023-04-03T02:20:03;103243.47;;;2.06;81.85
75692;BME280;64307;52.508;6.090;2023-04-03T02:22:30;103243.75;;;2.05;81.81
75692;BME280;64307;52.508;6.090;2023-04-03T02:24:55;103252.50;;;2.12;82.38
75692;BME280;64307;52.508;6.090;2023-04-03T02:27:21;103269.81;;;2.12;82.75
75692;BME280;64307;52.508;6.090;2023-04-03T02:29:46;103264.91;;;2.09;82.75
75692;BME280;64307;52.508;6.090;2023-04-03T02:32:11;103269.84;;;2.07;82.95
75692;BME280;64307;52.508;6.090;2023-04-03T02:34:37;103258.59;;;1.99;82.95
75692;BME280;64307;52.508;6.090;2023-04-03T02:37:03;103261.91;;;2.01;82.83
75692;BME280;64307;52.508;6.090;2023-04-03T02:39:28;103251.22;;;1.84;83.54
75692;BME280;64307;52.508;6.090;2023-04-03T02:41:53;103268.22;;;1.96;82.91
75692;BME280;64307;52.508;6.090;2023-04-03T02:44:19;103267.13;;;1.92;83.62
75692;BME280;64307;52.508;6.090;2023-04-03T02:46:44;103278.09;;;1.97;83.72
75692;BME280;64307;52.508;6.090;2023-04-03T02:49:10;103286.66;;;1.91;83.39
75692;BME280;64307;52.508;6.090;2023-04-03T02:51:35;103282.00;;;1.81;83.38
75692;BME280;64307;52.508;6.090;2023-04-03T02:54:00;103283.94;;;1.81;84.34
75692;BME280;64307;52.508;6.090;2023-04-03T02:56:26;103291.31;;;1.85;84.14
75692;BME280;64307;52.508;6.090;2023-04-03T02:58:52;103286.41;;;1.82;84.21
75692;BME280;64307;52.508;6.090;2023-04-03T03:01:18;103289.16;;;1.77;84.15
75692;BME280;64307;52.508;6.090;2023-04-03T03:03:43;103296.56;;;1.82;83.96
75692;BME280;64307;52.508;6.090;2023-04-03T03:06:13;103295.47;;;1.78;84.36
75692;BME280;64307;52.508;6.090;2023-04-03T03:08:39;103295.72;;;1.81;84.73
75692;BME280;64307;52.508;6.090;2023-04-03T03:11:05;103309.47;;;1.81;84.25
75692;BME280;64307;52.508;6.090;2023-04-03T03:13:31;103296.84;;;1.65;84.68
75692;BME280;64307;52.508;6.090;2023-04-03T03:15:56;103295.78;;;1.66;84.88
75692;BME280;64307;52.508;6.090;2023-04-03T03:18:22;103291.94;;;1.62;85.04
75692;BME280;64307;52.508;6.090;2023-04-03T03:20:51;103303.44;;;1.69;85.44
75692;BME280;64307;52.508;6.090;2023-04-03T03:23:17;103294.69;;;1.62;85.25
75692;BME280;64307;52.508;6.090;2023-04-03T03:25:42;103308.09;;;1.68;85.66
75692;BME280;64307;52.508;6.090;2023-04-03T03:28:08;103287.81;;;1.54;85.55
75692;BME280;64307;52.508;6.090;2023-04-03T03:30:33;103290.84;;;1.58;85.21
75692;BME280;64307;52.508;6.090;2023-04-03T03:32:59;103302.91;;;1.62;85.12
75692;BME280;64307;52.508;6.090;2023-04-03T03:35:24;103297.13;;;1.58;86.09
75692;BME280;64307;52.508;6.090;2023-04-03T03:37:50;103304.00;;;1.61;85.68
75692;BME280;64307;52.508;6.090;2023-04-03T03:40:15;103301.28;;;1.56;86.36
75692;BME280;64307;52.508;6.090;2023-04-03T03:42:40;103311.69;;;1.59;86.88
75692;BME280;64307;52.508;6.090;2023-04-03T03:45:07;103299.63;;;1.50;86.34
75692;BME280;64307;52.508;6.090;2023-04-03T03:47:32;103304.56;;;1.58;86.11
75692;BME280;64307;52.508;6.090;2023-04-03T03:49:57;103302.63;;;1.58;86.03
75692;BME280;64307;52.508;6.090;2023-04-03T03:52:25;103304.84;;;1.51;86.34
75692;BME280;64307;52.508;6.090;2023-04-03T03:54:51;103306.50;;;1.37;86.43
75692;BME280;64307;52.508;6.090;2023-04-03T03:57:16;103314.44;;;1.44;86.77
75692;BME280;64307;52.508;6.090;2023-04-03T03:59:41;103313.09;;;1.31;86.92
75692;BME280;64307;52.508;6.090;2023-04-03T04:02:08;103311.41;;;1.25;87.72
75692;BME280;64307;52.508;6.090;2023-04-03T04:04:33;103314.16;;;1.25;87.72
75692;BME280;64307;52.508;6.090;2023-04-03T04:06:58;103334.50;;;1.24;88.12
75692;BME280;64307;52.508;6.090;2023-04-03T04:09:25;103309.25;;;1.22;87.91
75692;BME280;64307;52.508;6.090;2023-04-03T04:11:51;103318.84;;;1.25;87.58
75692;BME280;64307;52.508;6.090;2023-04-03T04:14:16;103308.41;;;1.22;87.34
75692;BME280;64307;52.508;6.090;2023-04-03T04:16:42;103319.94;;;1.29;87.89
75692;BME280;64307;52.508;6.090;2023-04-03T04:19:07;103320.19;;;1.17;88.56
75692;BME280;64307;52.508;6.090;2023-04-03T04:21:32;103322.16;;;1.17;88.25
75692;BME280;64307;52.508;6.090;2023-04-03T04:23:58;103319.41;;;1.17;87.65
75692;BME280;64307;52.508;6.090;2023-04-03T04:26:23;103327.88;;;1.15;88.25
75692;BME280;64307;52.508;6.090;2023-04-03T04:28:50;103329.25;;;1.08;88.32
75692;BME280;64307;52.508;6.090;2023-04-03T04:31:16;103324.88;;;1.17;87.82
75692;BME280;64307;52.508;6.090;2023-04-03T04:33:41;103343.53;;;1.15;88.14
75692;BME280;64307;52.508;6.090;2023-04-03T04:36:06;103321.00;;;1.03;88.68
75692;BME280;64307;52.508;6.090;2023-04-03T04:38:32;103319.06;;;0.93;88.74
75692;BME280;64307;52.508;6.090;2023-04-03T04:40:57;103330.34;;;1.02;88.64
75692;BME280;64307;52.508;6.090;2023-04-03T04:43:22;103332.25;;;0.96;88.61
75692;BME280;64307;52.508;6.090;2023-04-03T04:45:48;103336.66;;;1.02;88.94
75692;BME280;64307;52.508;6.090;2023-04-03T04:48:13;103324.84;;;0.97;88.46
75692;BME280;64307;52.508;6.090;2023-04-03T04:50:38;103341.88;;;1.04;88.55
75692;BME280;64307;52.508;6.090;2023-04-03T04:53:04;103345.72;;;1.08;87.87
75692;BME280;64307;52.508;6.090;2023-04-03T04:55:29;103350.63;;;1.01;88.44
75692;BME280;64307;52.508;6.090;2023-04-03T04:57:54;103342.97;;;0.98;88.70
75692;BME280;64307;52.508;6.090;2023-04-03T05:00:20;103361.06;;;1.04;88.20
75692;BME280;64307;52.508;6.090;2023-04-03T05:02:45;103361.03;;;0.99;87.95
75692;BME280;64307;52.508;6.090;2023-04-03T05:05:11;103355.28;;;0.90;88.50
75692;BME280;64307;52.508;6.090;2023-04-03T05:07:37;103352.78;;;0.89;88.65
75692;BME280;64307;52.508;6.090;2023-04-03T05:10:03;103348.69;;;0.91;88.52
75692;BME280;64307;52.508;6.090;2023-04-03T05:12:29;103346.22;;;0.90;88.03
75692;BME280;64307;52.508;6.090;2023-04-03T05:14:54;103353.38;;;0.96;88.40
75692;BME280;64307;52.508;6.090;2023-04-03T05:17:20;103361.59;;;0.96;88.54
75692;BME280;64307;52.508;6.090;2023-04-03T05:19:46;103341.81;;;0.89;88.68
75692;BME280;64307;52.508;6.090;2023-04-03T05:22:12;103334.69;;;0.93;88.13
75692;BME280;64307;52.508;6.090;2023-04-03T05:24:37;103342.38;;;0.91;88.01
75692;BME280;64307;52.508;6.090;2023-04-03T05:27:03;103333.31;;;0.80;87.69
75692;BME280;64307;52.508;6.090;2023-04-03T05:29:28;103351.47;;;0.96;87.91
75692;BME280;64307;52.508;6.090;2023-04-03T05:31:53;103353.63;;;0.89;87.16
75692;BME280;64307;52.508;6.090;2023-04-03T05:34:19;103371.75;;;0.90;87.60
75692;BME280;64307;52.508;6.090;2023-04-03T05:36:45;103366.50;;;0.83;87.89
75692;BME280;64307;52.508;6.090;2023-04-03T05:39:10;103376.13;;;0.86;87.70
75692;BME280;64307;52.508;6.090;2023-04-03T05:41:36;103378.00;;;0.80;87.67
75692;BME280;64307;52.508;6.090;2023-04-03T05:44:01;103379.94;;;0.80;87.74
75692;BME280;64307;52.508;6.090;2023-04-03T05:46:26;103375.00;;;0.77;87.70
75692;BME280;64307;52.508;6.090;2023-04-03T05:48:51;103392.59;;;0.86;87.34
75692;BME280;64307;52.508;6.090;2023-04-03T05:51:20;103392.31;;;0.93;87.22
75692;BME280;64307;52.508;6.090;2023-04-03T05:53:47;103401.66;;;0.92;87.04
75692;BME280;64307;52.508;6.090;2023-04-03T05:56:12;103392.84;;;0.90;87.08
75692;BME280;64307;52.508;6.090;2023-04-03T05:58:38;103391.78;;;0.96;87.08
75692;BME280;64307;52.508;6.090;2023-04-03T06:01:03;103383.81;;;0.89;86.65
75692;BME280;64307;52.508;6.090;2023-04-03T06:03:29;103387.38;;;0.95;86.06
75692;BME280;64307;52.508;6.090;2023-04-03T06:05:54;103396.47;;;1.00;86.06
75692;BME280;64307;52.508;6.090;2023-04-03T06:08:19;103400.63;;;1.13;86.00
75692;BME280;64307;52.508;6.090;2023-04-03T06:10:45;103388.25;;;1.10;85.80
75692;BME280;64307;52.508;6.090;2023-04-03T06:13:10;103391.81;;;1.16;86.00
75692;BME280;64307;52.508;6.090;2023-04-03T06:15:36;103395.69;;;1.15;85.88
75692;BME280;64307;52.508;6.090;2023-04-03T06:18:02;103395.16;;;1.23;85.32
75692;BME280;64307;52.508;6.090;2023-04-03T06:20:27;103398.44;;;1.40;85.23
75692;BME280;64307;52.508;6.090;2023-04-03T06:22:52;103392.69;;;2.02;82.28
75692;BME280;64307;52.508;6.090;2023-04-03T06:25:18;103393.81;;;2.85;77.91
75692;BME280;64307;52.508;6.090;2023-04-03T06:27:45;103406.22;;;4.74;72.43
75692;BME280;64307;52.508;6.090;2023-04-03T06:30:11;103391.94;;;5.98;65.87
75692;BME280;64307;52.508;6.090;2023-04-03T06:32:37;103410.47;;;5.46;66.55
75692;BME280;64307;52.508;6.090;2023-04-03T06:35:03;103392.94;;;7.60;60.20
75692;BME280;64307;52.508;6.090;2023-04-03T06:37:28;103385.56;;;10.99;50.17
75692;BME280;64307;52.508;6.090;2023-04-03T06:39:55;103392.41;;;11.51;47.27
75692;BME280;64307;52.508;6.090;2023-04-03T06:42:21;103394.97;;;11.77;46.11
75692;BME280;64307;52.508;6.090;2023-04-03T06:44:47;103401.22;;;13.11;44.54
75692;BME280;64307;52.508;6.090;2023-04-03T06:47:13;103408.47;;;12.76;42.83
75692;BME280;64307;52.508;6.090;2023-04-03T06:49:39;103410.91;;;12.90;41.63
75692;BME280;64307;52.508;6.090;2023-04-03T06:52:04;103413.34;;;12.67;42.42
75692;BME280;64307;52.508;6.090;2023-04-03T06:54:30;103420.50;;;12.89;42.57
75692;BME280;64307;52.508;6.090;2023-04-03T06:56:56;103427.03;;;13.05;41.93
75692;BME280;64307;52.508;6.090;2023-04-03T06:59:21;103418.13;;;15.16;37.66
75692;BME280;64307;52.508;6.090;2023-04-03T07:01:47;103421.69;;;14.66;37.75
75692;BME280;64307;52.508;6.090;2023-04-03T07:04:12;103435.19;;;13.62;39.20
75692;BME280;64307;52.508;6.090;2023-04-03T07:06:38;103427.78;;;14.84;37.64
75692;BME280;64307;52.508;6.090;2023-04-03T07:09:03;103436.63;;;14.54;38.21
75692;BME280;64307;52.508;6.090;2023-04-03T07:11:29;103428.53;;;15.15;36.82
75692;BME280;64307;52.508;6.090;2023-04-03T07:13:54;103435.16;;;15.07;35.97
75692;BME280;64307;52.508;6.090;2023-04-03T07:16:21;103428.81;;;14.05;36.91
75692;BME280;64307;52.508;6.090;2023-04-03T07:18:46;103421.25;;;15.30;35.03
75692;BME280;64307;52.508;6.090;2023-04-03T07:21:12;103423.84;;;16.79;32.67
75692;BME280;64307;52.508;6.090;2023-04-03T07:23:39;103423.28;;;16.06;34.49
75692;BME280;64307;52.508;6.090;2023-04-03T07:26:05;103439.56;;;16.58;33.30
75692;BME280;64307;52.508;6.090;2023-04-03T07:28:31;103443.88;;;17.49;30.09
75692;BME280;64307;52.508;6.090;2023-04-03T07:31:05;103444.75;;;14.91;33.50
75692;BME280;64307;52.508;6.090;2023-04-03T07:33:34;103444.50;;;16.87;30.27
75692;BME280;64307;52.508;6.090;2023-04-03T07:36:00;103448.22;;;15.34;32.48
75692;BME280;64307;52.508;6.090;2023-04-03T07:38:26;103443.19;;;16.81;30.67
75692;BME280;64307;52.508;6.090;2023-04-03T07:40:52;103441.47;;;17.51;27.87
75692;BME280;64307;52.508;6.090;2023-04-03T07:43:18;103441.31;;;17.14;29.26
75692;BME280;64307;52.508;6.090;2023-04-03T07:45:45;103445.41;;;18.87;26.59
75692;BME280;64307;52.508;6.090;2023-04-03T07:48:16;103435.28;;;20.15;25.94
75692;BME280;64307;52.508;6.090;2023-04-03T07:50:45;103451.66;;;19.10;25.12
75692;BME280;64307;52.508;6.090;2023-04-03T07:53:11;103443.00;;;16.70;28.81
75692;BME280;64307;52.508;6.090;2023-04-03T07:55:36;103444.16;;;17.70;27.12
75692;BME280;64307;52.508;6.090;2023-04-03T07:58:12;103448.09;;;18.69;25.96
75692;BME280;64307;52.508;6.090;2023-04-03T08:00:39;103449.66;;;19.68;25.64
75692;BME280;64307;52.508;6.090;2023-04-03T08:03:05;103446.16;;;20.03;24.77
75692;BME280;64307;52.508;6.090;2023-04-03T08:05:34;103459.00;;;17.97;25.43
75692;BME280;64307;52.508;6.090;2023-04-03T08:08:00;103452.84;;;18.58;25.04
75692;BME280;64307;52.508;6.090;2023-04-03T08:10:26;103452.25;;;21.70;21.52
75692;BME280;64307;52.508;6.090;2023-04-03T08:12:51;103455.06;;;21.84;21.57
75692;BME280;64307;52.508;6.090;2023-04-03T08:15:16;103448.72;;;18.15;25.00
75692;BME280;64307;52.508;6.090;2023-04-03T08:17:42;103454.00;;;17.54;25.95
75692;BME280;64307;52.508;6.090;2023-04-03T08:20:07;103450.22;;;18.83;25.14
75692;BME280;64307;52.508;6.090;2023-04-03T08:22:34;103447.00;;;18.40;24.80
75692;BME280;64307;52.508;6.090;2023-04-03T08:25:00;103458.44;;;20.67;22.94
75692;BME280;64307;52.508;6.090;2023-04-03T08:27:26;103449.81;;;18.04;25.31
75692;BME280;64307;52.508;6.090;2023-04-03T08:29:52;103451.97;;;17.84;26.04
75692;BME280;64307;52.508;6.090;2023-04-03T08:32:17;103456.44;;;19.56;23.86
75692;BME280;64307;52.508;6.090;2023-04-03T08:34:43;103465.22;;;19.37;24.18
75692;BME280;64307;52.508;6.090;2023-04-03T08:37:09;103460.31;;;19.31;23.90
75692;BME280;64307;52.508;6.090;2023-04-03T08:39:34;103463.25;;;19.45;23.07
75692;BME280;64307;52.508;6.090;2023-04-03T08:42:05;103468.03;;;20.20;23.26
75692;BME280;64307;52.508;6.090;2023-04-03T08:44:38;103470.47;;;21.76;21.89
75692;BME280;64307;52.508;6.090;2023-04-03T08:55:06;103475.56;;;19.84;21.38
75692;BME280;64307;52.508;6.090;2023-04-03T08:57:33;103473.81;;;17.90;24.47
75692;BME280;64307;52.508;6.090;2023-04-03T09:00:03;103468.28;;;19.76;22.37
75692;BME280;64307;52.508;6.090;2023-04-03T09:02:33;103464.84;;;18.92;22.53
75692;BME280;64307;52.508;6.090;2023-04-03T09:04:59;103468.28;;;18.31;22.71
75692;BME280;64307;52.508;6.090;2023-04-03T09:07:53;103457.97;;;17.79;22.76
75692;BME280;64307;52.508;6.090;2023-04-03T09:10:24;103458.69;;;18.39;22.28
75692;BME280;64307;52.508;6.090;2023-04-03T09:13:03;103450.44;;;16.82;23.89
75692;BME280;64307;52.508;6.090;2023-04-03T09:15:30;103455.66;;;17.06;24.41
75692;BME280;64307;52.508;6.090;2023-04-03T09:23:59;103448.59;;;15.87;24.49
75692;BME280;64307;52.508;6.090;2023-04-03T09:26:09;103454.13;;;15.45;24.23
75692;BME280;64307;52.508;6.090;2023-04-03T09:28:38;103443.50;;;15.73;25.00
75692;BME280;64307;52.508;6.090;2023-04-03T09:33:45;103455.56;;;14.73;24.46
75692;BME280;64307;52.508;6.090;2023-04-03T09:36:12;103445.41;;;13.42;25.87
75692;BME280;64307;52.508;6.090;2023-04-03T09:38:39;103448.00;;;14.03;25.78
75692;BME280;64307;52.508;6.090;2023-04-03T09:41:07;103441.13;;;13.72;26.07
75692;BME280;64307;52.508;6.090;2023-04-03T09:43:34;103453.47;;;12.26;27.96
75692;BME280;64307;52.508;6.090;2023-04-03T09:46:36;103445.72;;;11.29;31.00
75692;BME280;64307;52.508;6.090;2023-04-03T09:49:04;103454.59;;;11.51;30.99
75692;BME280;64307;52.508;6.090;2023-04-03T09:51:31;103445.53;;;12.16;30.87
75692;BME280;64307;52.508;6.090;2023-04-03T09:53:57;103435.13;;;11.84;29.94
75692;BME280;64307;52.508;6.090;2023-04-03T09:56:25;103449.03;;;11.93;29.92
75692;BME280;64307;52.508;6.090;2023-04-03T10:01:36;103448.53;;;12.11;26.98
75692;BME280;64307;52.508;6.090;2023-04-03T10:04:13;103440.72;;;12.38;26.08
75692;BME280;64307;52.508;6.090;2023-04-03T10:09:27;103424.06;;;11.76;27.50
75692;BME280;64307;52.508;6.090;2023-04-03T10:12:07;103426.44;;;11.65;27.67
75692;BME280;64307;52.508;6.090;2023-04-03T10:14:36;103423.72;;;11.77;27.90
75692;BME280;64307;52.508;6.090;2023-04-03T10:17:28;103423.47;;;12.03;27.58
75692;BME280;64307;52.508;6.090;2023-04-03T10:31:17;103421.19;;;11.22;29.63
75692;BME280;64307;52.508;6.090;2023-04-03T10:36:28;103416.28;;;11.19;29.84
75692;BME280;64307;52.508;6.090;2023-04-03T10:39:04;103414.28;;;11.70;29.77
75692;BME280;64307;52.508;6.090;2023-04-03T10:47:10;103411.63;;;11.73;28.87
75692;BME280;64307;52.508;6.090;2023-04-03T10:49:49;103395.22;;;11.01;29.51
75692;BME280;64307;52.508;6.090;2023-04-03T10:57:24;103421.19;;;11.84;29.23
75692;BME280;64307;52.508;6.090;2023-04-03T10:59:59;103382.88;;;11.52;29.90
75692;BME280;64307;52.508;6.090;2023-04-03T11:02:45;103394.97;;;11.56;29.06
75692;BME280;64307;52.508;6.090;2023-04-03T11:05:29;103390.00;;;12.15;28.76
75692;BME280;64307;52.508;6.090;2023-04-03T11:07:57;103382.06;;;11.10;29.96
75692;BME280;64307;52.508;6.090;2023-04-03T11:10:41;103393.56;;;12.03;29.54
75692;BME280;64307;52.508;6.090;2023-04-03T11:13:15;103386.25;;;11.57;29.80
75692;BME280;64307;52.508;6.090;2023-04-03T11:15:42;103375.38;;;11.65;29.45
75692;BME280;64307;52.508;6.090;2023-04-03T11:18:16;103370.78;;;10.98;30.46
75692;BME280;64307;52.508;6.090;2023-04-03T11:20:50;103383.84;;;11.89;30.73
75692;BME280;64307;52.508;6.090;2023-04-03T11:23:24;103373.56;;;12.13;29.60
75692;BME280;64307;52.508;6.090;2023-04-03T11:25:55;103373.06;;;11.46;29.80
75692;BME280;64307;52.508;6.090;2023-04-03T11:28:24;103372.19;;;11.54;30.53
75692;BME280;64307;52.508;6.090;2023-04-03T11:36:18;103364.13;;;10.61;31.03
75692;BME280;64307;52.508;6.090;2023-04-03T11:38:47;103370.31;;;11.58;30.72
75692;BME280;64307;52.508;6.090;2023-04-03T11:41:15;103351.56;;;11.26;30.37
75692;BME280;64307;52.508;6.090;2023-04-03T11:43:56;103362.19;;;11.74;29.23
75692;BME280;64307;52.508;6.090;2023-04-03T11:46:52;103361.19;;;11.37;29.87
75692;BME280;64307;52.508;6.090;2023-04-03T12:14:23;103340.31;;;10.73;32.00
75692;BME280;64307;52.508;6.090;2023-04-03T12:16:33;103335.03;;;10.50;32.32
75692;BME280;64307;52.508;6.090;2023-04-03T12:19:38;103330.53;;;10.87;32.41
75692;BME280;64307;52.508;6.090;2023-04-03T12:22:11;103334.16;;;10.21;32.99
75692;BME280;64307;52.508;6.090;2023-04-03T12:24:39;103330.69;;;10.91;32.37
75692;BME280;64307;52.508;6.090;2023-04-03T12:29:46;103325.38;;;10.10;33.31
75692;BME280;64307;52.508;6.090;2023-04-03T12:35:28;103317.97;;;10.14;32.87
75692;BME280;64307;52.508;6.090;2023-04-03T12:38:32;103301.44;;;10.97;33.23
75692;BME280;64307;52.508;6.090;2023-04-03T12:46:21;103291.56;;;10.79;32.00
75692;BME280;64307;52.508;6.090;2023-04-03T12:48:58;103293.75;;;10.15;32.92
75692;BME280;64307;52.508;6.090;2023-04-03T12:54:02;103283.81;;;11.05;33.00
75692;BME280;64307;52.508;6.090;2023-04-03T12:56:32;103278.19;;;10.14;32.79
75692;BME280;64307;52.508;6.090;2023-04-03T12:59:18;103275.88;;;10.45;34.05
75692;BME280;64307;52.508;6.090;2023-04-03T13:01:44;103274.56;;;10.71;33.24
75692;BME280;64307;52.508;6.090;2023-04-03T13:04:17;103276.38;;;10.67;34.30
75692;BME280;64307;52.508;6.090;2023-04-03T13:06:43;103271.13;;;10.16;34.17
75692;BME280;64307;52.508;6.090;2023-04-03T13:09:30;103264.91;;;10.19;33.34
75692;BME280;64307;52.508;6.090;2023-04-03T13:12:13;103266.91;;;10.02;33.78
75692;BME280;64307;52.508;6.090;2023-04-03T13:14:39;103255.63;;;9.98;34.38
75692;BME280;64307;52.508;6.090;2023-04-03T13:17:12;103252.47;;;10.08;34.88
75692;BME280;64307;52.508;6.090;2023-04-03T13:19:38;103263.22;;;10.27;33.97
75692;BME280;64307;52.508;6.090;2023-04-03T13:22:08;103265.06;;;10.14;34.99
75692;BME280;64307;52.508;6.090;2023-04-03T13:24:37;103254.38;;;10.25;35.58
75692;BME280;64307;52.508;6.090;2023-04-03T13:27:04;103260.22;;;9.94;34.45
75692;BME280;64307;52.508;6.090;2023-04-03T13:29:38;103267.72;;;10.11;34.95
75692;BME280;64307;52.508;6.090;2023-04-03T13:32:05;103260.81;;;10.08;34.37
75692;BME280;64307;52.508;6.090;2023-04-03T13:34:38;103267.28;;;10.29;34.12
75692;BME280;64307;52.508;6.090;2023-04-03T13:37:04;103267.78;;;10.31;34.72
75692;BME280;64307;52.508;6.090;2023-04-03T13:39:30;103270.25;;;10.24;34.16
75692;BME280;64307;52.508;6.090;2023-04-03T13:41:58;103256.34;;;10.53;34.47
75692;BME280;64307;52.508;6.090;2023-04-03T13:44:36;103260.72;;;10.63;35.09
75692;BME280;64307;52.508;6.090;2023-04-03T13:49:38;103246.28;;;10.11;35.49
75692;BME280;64307;52.508;6.090;2023-04-03T13:52:25;103260.25;;;10.32;36.33
75692;BME280;64307;52.508;6.090;2023-04-03T13:54:59;103247.16;;;10.32;36.70
75692;BME280;64307;52.508;6.090;2023-04-03T13:57:25;103248.28;;;10.31;35.78
75692;BME280;64307;52.508;6.090;2023-04-03T13:59:51;103233.31;;;10.15;36.38
75692;BME280;64307;52.508;6.090;2023-04-03T14:02:29;103240.38;;;10.04;36.21
75692;BME280;64307;52.508;6.090;2023-04-03T14:04:58;103247.31;;;10.27;36.36
75692;BME280;64307;52.508;6.090;2023-04-03T14:07:27;103223.03;;;9.61;36.03
75692;BME280;64307;52.508;6.090;2023-04-03T14:09:52;103209.44;;;10.06;36.13
75692;BME280;64307;52.508;6.090;2023-04-03T14:12:34;103224.97;;;10.07;35.86
75692;BME280;64307;52.508;6.090;2023-04-03T14:15:05;103227.53;;;9.82;36.00
75692;BME280;64307;52.508;6.090;2023-04-03T14:17:35;103226.56;;;10.16;35.79
75692;BME280;64307;52.508;6.090;2023-04-03T14:20:01;103228.41;;;10.04;35.91
75692;BME280;64307;52.508;6.090;2023-04-03T14:22:29;103227.59;;;10.12;36.36
75692;BME280;64307;52.508;6.090;2023-04-03T14:24:55;103216.50;;;9.95;35.09
75692;BME280;64307;52.508;6.090;2023-04-03T14:27:22;103228.56;;;10.07;36.35
75692;BME280;64307;52.508;6.090;2023-04-03T14:29:48;103207.63;;;9.63;36.54
75692;BME280;64307;52.508;6.090;2023-04-03T14:32:15;103211.59;;;10.29;36.97
75692;BME280;64307;52.508;6.090;2023-04-03T14:34:43;103222.41;;;10.51;36.03
75692;BME280;64307;52.508;6.090;2023-04-03T14:37:11;103220.53;;;10.14;36.00